METAR stanice u blizini

 

LYNI - Nis, Yugoslavia
Distance from station: JZ 40km
Ažurirano: 03/02/2023 17:30
Delimično oblačno
Delimično oblačno
 Pravac vetra varies
Vetar: varies 2 km/h
Temperatura: 5°C
Tačka rose: -4°C
Vlažnost: 53%
Pritisak: 1021 hPa
Oblaci: Delimično oblačno
Vidljivost: 10 km
Cloud details: Delimično oblačno 1524 m
2023/02/03 16:30 LYNI 031630Z VRB01KT 9999 SCT050 05/M04 Q1021 NOSIG
LYKV - Kraljevo, Yugoslavia
Distance from station: ZSZ 136km
Ažurirano: 03/02/2023 17:30
Delimično oblačno
Delimično oblačno
 Pravac vetra JI
Vetar: JI 7 km/h
Temperatura: 6°C
Osećaj hladnoće: 4°C
Tačka rose: -1°C
Vlažnost: 61%
Pritisak: 1020 hPa
Oblaci: Delimično oblačno
Vidljivost: 10 km
Cloud details: Delimično oblačno 1524 m
2023/02/03 16:30 LYKV 031630Z 14004KT 9999 SCT050 06/M01 Q1020 NOSIG
LBSF - Sofia (observato, Bulgaria
Distance from station: JI 138km
Ažurirano: 03/02/2023 17:30
Few Clouds
Few Clouds
 Pravac vetra ZSZ
Vetar: ZSZ 7 km/h
Temperatura: 1°C
Osećaj hladnoće: -2°C
Tačka rose: -6°C
Vlažnost: 60%
Pritisak: 1020 hPa
Oblaci: Few Clouds
Vidljivost: 10 km
Cloud details: Few Clouds 2286 m
2023/02/03 16:30 LBSF 031630Z 30004KT 280V340 9999 FEW075 01/M06 Q1020 NOSIG
 
BKPR - Prishtina, Yugoslavia
Distance from station: JZ 147km
Ažurirano: 03/02/2023 17:30
Pretežno oblačno
Pretežno oblačno
 Pravac vetra Z
Vetar: Z 7 km/h
Temperatura: 5°C
Osećaj hladnoće: 3°C
Tačka rose: -5°C
Vlažnost: 49%
Pritisak: 1021 hPa
Oblaci: Pretežno oblačno
Vidljivost: 10 km
Cloud details: Pretežno oblačno 1829 m
2023/02/03 16:30 BKPR 031630Z 27004KT 9999 BKN060 05/M05 Q1021 NOSIG
LRCV - Craiova, Romania
Distance from station: SI 154km
Ažurirano: 03/02/2023 17:00
Vedro
Vedro
 Pravac vetra Z
Vetar: Z 24 km/h
Temperatura: 2°C
Osećaj hladnoće: -3°C
Tačka rose: -6°C
Vlažnost: 56%
Pritisak: 1018 hPa
Pregled: Vedro
Vidljivost: greater than 10 km
2023/02/03 16:00 LRCV 031600Z 27013KT CAVOK 02/M06 Q1018
LWSK - Skopje/Petrovac, Macedonia
Distance from station: JJZ 185km
Ažurirano: 03/02/2023 17:30
Vedro
Vedro
 Pravac vetra IJI
Vetar: IJI 6 km/h
Temperatura: 3°C
Tačka rose: -3°C
Vlažnost: 65%
Pritisak: 1022 hPa
Pregled: Vedro
Vidljivost: greater than 10 km
2023/02/03 16:30 LWSK 031630Z 11003KT CAVOK 03/M03 Q1022 NOSIG
 
LYVR - Vrsac, Yugoslavia
Distance from station: SSZ 189km
Ažurirano: 03/02/2023 17:30
Slaba kiša, Showers, Oblačno
Slaba kiša, Showers, Oblačno
 Pravac vetra JJZ
Vetar: JJZ 11 km/h
Temperatura: 4°C
Osećaj hladnoće: 1°C
Tačka rose: 0°C
Vlažnost: 75%
Pritisak: 1020 hPa
Pregled: Slaba kiša, Showers
Oblaci: Oblačno
Vidljivost: 10 km
Cloud details: Oblačno 610 m
2023/02/03 16:30 LYVR 031630Z AUTO 20006KT 160V250 9999 -SHRA VV020 04/00 Q1020
LYUZ - Uzice-Ponikve, Yugoslavia
Distance from station: Z 207km
Ažurirano: 04/11/2021 00:30
NOT Current

 Pravac vetra varies
Vetar: varies 9 km/h
Temperatura: 14°C
Tačka rose: 7°C
Vlažnost: 63%
Pritisak: 1010 hPa
Vidljivost: 10 km
2021/11/03 23:30 LYUZ 032330Z AUTO VRB05KT 9999 ////// 14/07 Q1010
LYBE - Belgrade/Surcin, Yugoslavia
Distance from station: SZ 209km
Ažurirano: 03/02/2023 17:30
Vedro
Vedro
 Pravac vetra J
Vetar: J 7 km/h
Temperatura: 6°C
Osećaj hladnoće: 4°C
Tačka rose: 0°C
Vlažnost: 66%
Pritisak: 1019 hPa
Pregled: Vedro
Vidljivost: greater than 10 km
2023/02/03 16:30 LYBE 031630Z 18004KT CAVOK 06/00 Q1019 NOSIG
 
LYBT - Batajnica, Yugoslavia
Distance from station: SZ 219km
Ažurirano: 03/02/2023 17:30
Vedro
Vedro
 Pravac vetra JJI
Vetar: JJI 6 km/h
Temperatura: 5°C
Tačka rose: 2°C
Vlažnost: 81%
Pritisak: 1019 hPa
Pregled: Vedro
Vidljivost: greater than 10 km
2023/02/03 16:30 LYBT 031630Z 16003KT CAVOK 05/02 Q1019 NOSIG
LRTR - Timisoara/Giarma, Romania
Distance from station: SSZ 260km
Ažurirano: 03/02/2023 17:00
Light snow, Padavine, Oblačno
Light snow, Padavine, Oblačno
 Pravac vetra J
Vetar: J 7 km/h
Temperatura: 2°C
Osećaj hladnoće: 0°C
Tačka rose: 1°C
Vlažnost: 93%
Pritisak: 1019 hPa
Pregled: Light snow, Padavine
Oblaci: Oblačno
Vidljivost: 10 km
Cloud details: Few Clouds 457 m
Pretežno oblačno 701 m
Oblačno 1067 m
2023/02/03 16:00 LRTR 031600Z 19004KT 9999 -SNRA FEW015 BKN023 OVC035 02/01 Q1019
LBPD - Plovdiv, Bulgaria
Distance from station: JI 263km
Ažurirano: 03/02/2023 17:30
Few Clouds
Few Clouds
 Pravac vetra Z
Vetar: Z 20 km/h
Temperatura: 6°C
Osećaj hladnoće: 2°C
Tačka rose: -7°C
Vlažnost: 39%
Pritisak: 1020 hPa
Oblaci: Few Clouds
Vidljivost: 10 km
Cloud details: Few Clouds 2469 m
2023/02/03 16:30 LBPD 031630Z AUTO 27011KT 9999 FEW081/// 06/M07 Q1020 NOSIG
 
LYPG - Podgorica(Titogr, Yugoslavia
Distance from station: ZJZ 278km
Ažurirano: 03/02/2023 17:30
Vedro
Vedro
 Pravac vetra I
Vetar: I 7 km/h
Temperatura: 8°C
Osećaj hladnoće: 7°C
Tačka rose: -6°C
Vlažnost: 37%
Pritisak: 1024 hPa
Pregled: Vedro
Vidljivost: greater than 10 km
2023/02/03 16:30 LYPG 031630Z 09004KT CAVOK 08/M06 Q1024 NOSIG
LBGO - Gorna Orechovist, Bulgaria
Distance from station: I 285km
Ažurirano: 03/02/2023 17:30
Vedro
Vedro
 Pravac vetra ZSZ
Vetar: ZSZ 11 km/h
Temperatura: 2°C
Osećaj hladnoće: -1°C
Tačka rose: -4°C
Vlažnost: 65%
Pritisak: 1020 hPa
Oblaci: Vedro
Vidljivost: 10 km
2023/02/03 16:30 LBGO 031630Z AUTO 29006KT 9999 NCD 02/M04 Q1020 NOSIG
LRSB - Sibiu/Turnisor, Romania
Distance from station: SSI 286km
Ažurirano: 03/02/2023 17:00
Few Clouds
Few Clouds
 Pravac vetra SZ
Vetar: SZ 20 km/h
Temperatura: 0°C
Osećaj hladnoće: -6°C
Tačka rose: -3°C
Vlažnost: 80%
Pritisak: 1016 hPa
Oblaci: Few Clouds
Vidljivost: 10 km
Cloud details: Few Clouds 2134 m
2023/02/03 16:00 LRSB 031600Z 31011KT 9999 FEW070 00/M03 Q1016
 
LWOH - Ohrid, Macedonia
Distance from station: JJZ 292km
Ažurirano: 03/02/2023 17:00
Vedro
Vedro
 Pravac vetra J
Vetar: J 11 km/h
Temperatura: 4°C
Osećaj hladnoće: 1°C
Tačka rose: -5°C
Vlažnost: 52%
Pritisak: 1022 hPa
Pregled: Vedro
Vidljivost: greater than 10 km
2023/02/03 16:00 LWOH 031600Z 17006KT CAVOK 04/M05 Q1022
LQTZ - Tuzla, Yugoslavia
Distance from station: ZSZ 298km
Ažurirano: 03/02/2023 17:30
Vedro
Vedro
 Pravac vetra ISI
Vetar: ISI 6 km/h
Temperatura: 5°C
Tačka rose: 1°C
Vlažnost: 76%
Pritisak: 1018 hPa
Pregled: Vedro
Vidljivost: greater than 10 km
2023/02/03 16:30 LQTZ 031630Z 06003KT CAVOK 05/01 Q1018
LRAR - Arad, Romania
Distance from station: SSZ 301km
Ažurirano: 03/02/2023 17:00
Slaba kiša, Sneg, Mist, Pretežno oblačno
Slaba kiša, Sneg, Mist, Pretežno oblačno
 Pravac vetra J
Vetar: J 13 km/h
Temperatura: 1°C
Osećaj hladnoće: -3°C
Tačka rose: 0°C
Vlažnost: 93%
Pritisak: 1018 hPa
Pregled: Slaba kiša, Sneg, Mist
Oblaci: Pretežno oblačno
Vidljivost: 5 km
Cloud details: Pretežno oblačno 305 m
2023/02/03 16:00 LRAR 031600Z 19007KT 5000 -RASN BR BKN010 01/00 Q1018
 
LYTV - Tivat, Yugoslavia
Distance from station: ZJZ 315km
Ažurirano: 03/02/2023 17:30
Vedro
Vedro
 Pravac vetra varies
Vetar: varies 4 km/h
Temperatura: 7°C
Tačka rose: 0°C
Vlažnost: 61%
Pritisak: 1024 hPa
Pregled: Vedro
Vidljivost: greater than 10 km
2023/02/03 16:30 LYTV 031630Z VRB02KT CAVOK 07/M00 Q1024 NOSIG
LATI - Tirana, Albania
Distance from station: JZ 316km
Ažurirano: 03/02/2023 17:20
Vedro
Vedro
 Pravac vetra Z
Vetar: Z 6 km/h
Temperatura: 8°C
Tačka rose: -3°C
Vlažnost: 46%
Pritisak: 1024 hPa
Pregled: Vedro
Vidljivost: greater than 10 km
2023/02/03 16:20 LATI 031620Z 28003KT 240V320 CAVOK 08/M03 Q1024 NOSIG
LQBK - Banja Luka, Yugoslavia
Distance from station: SZ 426km
Ažurirano: 03/02/2023 17:30
Vedro
Vedro
 Pravac vetra JZ
Vetar: JZ 4 km/h
Temperatura: 6°C
Tačka rose: 4°C
Vlažnost: 87%
Pritisak: 1018 hPa
Pregled: Vedro
Vidljivost: greater than 10 km
2023/02/03 16:30 LQBK 031630Z 22002KT CAVOK 06/04 Q1018 NOSIG
 
LDOS - Osijek, Croatia
Distance from station: SSZ 360km
Ažurirano: 03/02/2023 17:30
Vedro
Vedro
 Pravac vetra JJZ
Vetar: JJZ 13 km/h
Temperatura: 6°C
Osećaj hladnoće: 3°C
Tačka rose: 1°C
Vlažnost: 71%
Pritisak: 1018 hPa
Pregled: Vedro
Vidljivost: greater than 10 km
2023/02/03 16:30 LDOS 031630Z 20007KT CAVOK 06/01 Q1018
LDDU - Dubrovnik-Cilipi, Croatia
Distance from station: JZ 352km
Ažurirano: 03/02/2023 17:30
Vedro
Vedro
 Pravac vetra varies
Vetar: varies 4 km/h
Temperatura: 7°C
Tačka rose: -1°C
Vlažnost: 57%
Pritisak: 1024 hPa
Pregled: Vedro
Vidljivost: greater than 10 km
2023/02/03 16:30 LDDU 031630Z VRB02KT CAVOK 07/M01 Q1024 NOSIG
LQMO - Mostar Airport, Bosnia-Herzegovina
Distance from station: Z 359km
Ažurirano: 03/02/2023 17:30
Few Clouds
Few Clouds
 Pravac vetra JI
Vetar: JI 11 km/h
Temperatura: 9°C
Osećaj hladnoće: 7°C
Tačka rose: -2°C
Vlažnost: 46%
Pritisak: 1022 hPa
Oblaci: Few Clouds
Vidljivost: 10 km
Cloud details: Few Clouds 2134 m
2023/02/03 16:30 LQMO 031630Z 13006KT 9999 FEW070 09/M02 Q1022
 
LQSA - Sarajevo/Butmir, Yugoslavia
Distance from station: Z 311km
Ažurirano: 03/02/2023 17:30
Vedro
Vedro
 Pravac vetra IJI
Vetar: IJI 6 km/h
Temperatura: 3°C
Tačka rose: -1°C
Vlažnost: 75%
Pritisak: 1020 hPa
Pregled: Vedro
Vidljivost: greater than 10 km
2023/02/03 16:30 LQSA 031630Z 11003KT 040V160 CAVOK 03/M01 Q1020 NOSIG
LDSP - Split/Kastel Sta, Croatia
Distance from station: Z 468km
Ažurirano: 03/02/2023 17:30
Vedro
Vedro
 Pravac vetra SSZ
Vetar: SSZ 4 km/h
Temperatura: 9°C
Tačka rose: 3°C
Vlažnost: 66%
Pritisak: 1023 hPa
Pregled: Vedro
Vidljivost: greater than 10 km
2023/02/03 16:30 LDSP 031630Z 33002KT CAVOK 09/03 Q1023 NOSIG
LDZD - Zadar/Zemunik, Croatia
Distance from station: ZSZ 567km
Ažurirano: 03/02/2023 17:30
Vedro
Vedro
 Pravac vetra ISI
Vetar: ISI 6 km/h
Temperatura: 8°C
Tačka rose: 0°C
Vlažnost: 57%
Pritisak: 1023 hPa
Pregled: Vedro
Vidljivost: greater than 10 km
2023/02/03 16:30 LDZD 031630Z 06003KT CAVOK 08/M00 Q1023 NOSIG
 
LDZA - Zagreb/Pleso, Croatia
Distance from station: SZ 555km
Ažurirano: 03/02/2023 17:30
Vedro
Vedro
 Pravac vetra ZJZ
Vetar: ZJZ 11 km/h
Temperatura: 8°C
Osećaj hladnoće: 6°C
Tačka rose: 2°C
Vlažnost: 66%
Pritisak: 1017 hPa
Pregled: Vedro
Vidljivost: greater than 10 km
2023/02/03 16:30 LDZA 031630Z 25006KT 220V280 CAVOK 08/02 Q1017 NOSIG
LJCE - Cerklje, Slovenia
Distance from station: SZ 680km
Ažurirano: 03/02/2023 17:00
Vedro
Vedro
 Pravac vetra ZJZ
Vetar: ZJZ 17 km/h
Temperatura: 8°C
Osećaj hladnoće: 5°C
Tačka rose: 1°C
Vlažnost: 62%
Pritisak: 1018 hPa
Pregled: Vedro
Vidljivost: greater than 10 km
2023/02/03 16:00 LJCE 031600Z 24009KT CAVOK 08/01 Q1018 RMK BLU
LJMB - Maribor, Slovenia
Distance from station: SZ 616km
Ažurirano: 03/02/2023 17:00
Vedro
Vedro
 Pravac vetra JZ
Vetar: JZ 13 km/h
Temperatura: 8°C
Osećaj hladnoće: 6°C
Tačka rose: 1°C
Vlažnost: 62%
Pritisak: 1016 hPa
Pregled: Vedro
Vidljivost: greater than 10 km
2023/02/03 16:00 LJMB 031600Z 22007KT 190V250 CAVOK 08/01 Q1016
 
LJLJ - Ljubljana/Brnik, Slovenia
Distance from station: SZ 671km
Ažurirano: 03/02/2023 17:00
Vedro
Vedro
 Pravac vetra ZSZ
Vetar: ZSZ 7 km/h
Temperatura: 3°C
Osećaj hladnoće: 1°C
Tačka rose: 0°C
Vlažnost: 81%
Pritisak: 1018 hPa
Pregled: Vedro
Vidljivost: greater than 10 km
2023/02/03 16:00 LJLJ 031600Z 29004KT CAVOK 03/M00 Q1018 NOSIG
LDRI - Rijeka, Croatia
Distance from station: SZ 650km
Ažurirano: 03/02/2023 17:30
Pretežno oblačno
Pretežno oblačno
 Pravac vetra IJI
Vetar: IJI 7 km/h
Temperatura: 10°C
Osećaj hladnoće: 9°C
Tačka rose: 2°C
Vlažnost: 58%
Pritisak: 1022 hPa
Oblaci: Pretežno oblačno
Vidljivost: 10 km
Cloud details: Pretežno oblačno 1006 m
2023/02/03 16:30 LDRI 031630Z 11004KT 9999 BKN033 10/02 Q1022
LDPL - Pula, Croatia
Distance from station: ZSZ 686km
Ažurirano: 03/02/2023 17:30
Mist, Shallow, Magla, Delimično oblačno
Mist, Shallow, Magla, Delimično oblačno
 Pravac vetra Z
Vetar: Z 7 km/h
Temperatura: 7°C
Osećaj hladnoće: 6°C
Tačka rose: 5°C
Vlažnost: 87%
Pritisak: 1021 hPa
Pregled: Mist, Shallow, Magla
Oblaci: Delimično oblačno
Vidljivost: 5 km
2023/02/03 16:30 LDPL 031630Z 26004KT 5000 BR MIFG NSC 07/05 Q1021 TEMPO 3000
 
LJPZ - Portorož, Slovenia
Distance from station: ZSZ 720km
Ažurirano: 03/02/2023 17:00
Pretežno oblačno
Pretežno oblačno
 Pravac vetra varies
Vetar: varies 2 km/h
Temperatura: 9°C
Tačka rose: 4°C
Vlažnost: 71%
Pritisak: 1022 hPa
Oblaci: Pretežno oblačno
Vidljivost: 10 km
Cloud details: Few Clouds 914 m
Pretežno oblačno 6096 m
2023/02/03 16:00 LJPZ 031600Z VRB01KT 9999 FEW030 BKN200 09/04 Q1022